Flugplatz Mosenberg

Für EDEM sind keine METAR/TAF Berichte vorhanden.
Es werden die Flugwettermeldungen vom Flugplatz Fritzlar Airport in 11 km Entfernung angezeigt.

Bericht für ETHF

vom 15.10. um 07:20 UTC

Wind 1 kt aus 280°

Sichtweite 10 km oder mehr

aufgebrochene Bewölkung in 22000 ft

Temperatur 12.0°C

Taupunkt 11.0°C

Luftfeuchtigkeit 94%

Luftdruck 1007 hPa

ETHF 150720Z 28001KT 9999 BKN220 12/11 Q1007 BLU+BLU+

Prognose für ETHF

vom 15.10. um 00:00 UTC

Zwischen 00:00 UTC und 00:00 UTC

Wind 5 kt aus 150°

Sichtweite 10 km oder mehr

keine signifikanten Wettererscheinungen

gering bewölkt in 10000 ft

aufgebrochene Bewölkung in 25000 ft


Zwischen 00:00 UTC und 00:00 UTC zeitweise

Wind 5 kt aus 290°

Sichtweite 6000 m

schwacher Regen

aufgebrochene Bewölkung in 2000 ft

TAF ETHF 150729Z 1508/1517 15005KT 9999 NSW FEW100 BKN250 TEMPO 1516/1517 29005KT 6000 -RA BKN020
Impressum